createdAt,value
2022-11-27T00:00:15.816Z,29.835
2022-11-27T00:05:15.948Z,29.833
2022-11-27T00:10:15.809Z,29.837
2022-11-27T00:15:17.341Z,29.834
2022-11-27T00:20:15.824Z,29.839
2022-11-27T00:25:15.819Z,29.837
2022-11-27T00:30:15.857Z,29.839
2022-11-27T00:35:15.952Z,29.837
2022-11-27T00:40:15.933Z,29.840
2022-11-27T00:45:16.084Z,29.839
2022-11-27T00:50:16.253Z,29.840
2022-11-27T00:55:16.051Z,29.841
2022-11-27T01:00:16.025Z,29.840
2022-11-27T01:05:16.118Z,29.837
2022-11-27T01:10:15.969Z,29.842
2022-11-27T01:15:16.105Z,29.840
2022-11-27T01:20:16.089Z,29.841
2022-11-27T01:25:15.974Z,29.842
2022-11-27T01:30:16.003Z,29.843
2022-11-27T01:35:15.965Z,29.846
2022-11-27T01:40:16.025Z,29.846
2022-11-27T01:45:16.172Z,29.850
2022-11-27T01:50:16.323Z,29.852
2022-11-27T01:55:16.022Z,29.852
2022-11-27T02:00:16.092Z,29.849
2022-11-27T02:05:16.101Z,29.850
2022-11-27T02:10:16.101Z,29.851
2022-11-27T02:15:16.206Z,29.855
2022-11-27T02:20:16.095Z,29.852
2022-11-27T02:25:16.170Z,29.853
2022-11-27T02:30:16.151Z,29.847
2022-11-27T02:35:16.121Z,29.847
2022-11-27T02:40:16.171Z,29.847
2022-11-27T02:45:16.153Z,29.844
2022-11-27T02:50:16.245Z,29.837
2022-11-27T02:55:16.351Z,29.838
2022-11-27T03:00:16.244Z,29.837
2022-11-27T03:05:16.254Z,29.834
2022-11-27T03:10:16.347Z,29.829
2022-11-27T03:15:16.199Z,29.826
2022-11-27T03:20:16.360Z,29.828
2022-11-27T03:25:16.329Z,29.834
2022-11-27T03:30:16.274Z,29.836
2022-11-27T03:35:16.312Z,29.839
2022-11-27T03:40:16.418Z,29.844
2022-11-27T03:45:16.373Z,29.842
2022-11-27T03:50:16.331Z,29.836
2022-11-27T03:55:16.296Z,29.833
2022-11-27T04:00:16.401Z,29.832
2022-11-27T04:05:16.383Z,29.830
2022-11-27T04:10:16.323Z,29.829
2022-11-27T04:15:16.346Z,29.830
2022-11-27T04:20:16.628Z,29.835
2022-11-27T04:25:16.574Z,29.835
2022-11-27T04:30:16.567Z,29.838
2022-11-27T04:35:16.445Z,29.835
2022-11-27T04:40:16.471Z,29.837
2022-11-27T04:45:16.472Z,29.839
2022-11-27T04:50:16.440Z,29.839
2022-11-27T04:55:16.441Z,29.842
2022-11-27T05:00:15.602Z,29.842
2022-11-27T05:05:15.459Z,29.843
2022-11-27T05:10:15.642Z,29.842
2022-11-27T05:15:15.630Z,29.849
2022-11-27T05:20:15.540Z,29.849
2022-11-27T05:25:15.513Z,29.849
2022-11-27T05:30:15.501Z,29.847
2022-11-27T05:35:15.745Z,29.846
2022-11-27T05:40:15.597Z,29.843
2022-11-27T05:45:15.838Z,29.843
2022-11-27T05:50:15.598Z,29.845
2022-11-27T05:55:15.688Z,29.838
2022-11-27T06:00:15.690Z,29.839
2022-11-27T06:05:15.719Z,29.835
2022-11-27T06:10:15.594Z,29.834
2022-11-27T06:15:15.654Z,29.832
2022-11-27T06:20:15.740Z,29.827
2022-11-27T06:25:15.663Z,29.827
2022-11-27T06:30:15.680Z,29.827
2022-11-27T06:35:15.735Z,29.826
2022-11-27T06:40:15.719Z,29.824
2022-11-27T06:45:15.643Z,29.826
2022-11-27T06:50:15.681Z,29.832
2022-11-27T06:55:15.828Z,29.835
2022-11-27T07:00:15.731Z,29.834
2022-11-27T07:05:15.716Z,29.835
2022-11-27T07:10:15.782Z,29.837
2022-11-27T07:15:15.750Z,29.833
2022-11-27T07:20:15.904Z,29.832
2022-11-27T07:25:15.909Z,29.834
2022-11-27T07:30:15.866Z,29.836
2022-11-27T07:35:15.832Z,29.833
2022-11-27T07:40:15.841Z,29.833
2022-11-27T07:45:15.785Z,29.839
2022-11-27T07:50:15.923Z,29.835
2022-11-27T07:55:15.716Z,29.839
2022-11-27T08:00:15.798Z,29.831
2022-11-27T08:05:15.882Z,29.832
2022-11-27T08:10:15.903Z,29.832
2022-11-27T08:15:15.998Z,29.833
2022-11-27T08:20:15.935Z,29.828
2022-11-27T08:25:16.172Z,29.830
2022-11-27T08:30:15.802Z,29.828
2022-11-27T08:35:15.887Z,29.827
2022-11-27T08:40:15.908Z,29.827
2022-11-27T08:45:16.040Z,29.827
2022-11-27T08:50:16.034Z,29.826
2022-11-27T08:55:15.961Z,29.827
2022-11-27T09:00:15.967Z,29.827
2022-11-27T09:05:15.940Z,29.825
2022-11-27T09:10:16.009Z,29.824
2022-11-27T09:15:16.061Z,29.824
2022-11-27T09:20:16.329Z,29.822
2022-11-27T09:25:16.081Z,29.824
2022-11-27T09:30:16.097Z,29.822
2022-11-27T09:35:16.120Z,29.817
2022-11-27T09:40:16.114Z,29.816
2022-11-27T09:45:16.069Z,29.814
2022-11-27T09:50:16.004Z,29.814
2022-11-27T09:55:16.057Z,29.816
2022-11-27T10:00:16.058Z,29.816
2022-11-27T10:05:16.629Z,29.814
2022-11-27T10:10:16.230Z,29.813
2022-11-27T10:15:16.112Z,29.809
2022-11-27T10:20:16.127Z,29.811
2022-11-27T10:25:16.202Z,29.813
2022-11-27T10:30:16.235Z,29.810
2022-11-27T10:35:16.283Z,29.814
2022-11-27T10:40:16.200Z,29.816
2022-11-27T10:45:16.227Z,29.818
2022-11-27T10:50:16.256Z,29.819
2022-11-27T10:55:16.226Z,29.817
2022-11-27T11:00:16.238Z,29.821
2022-11-27T11:05:34.984Z,29.821
2022-11-27T11:10:16.291Z,29.822
2022-11-27T11:15:16.402Z,29.827
2022-11-27T11:20:16.315Z,29.825
2022-11-27T11:25:16.256Z,29.825
2022-11-27T11:30:16.562Z,29.829
2022-11-27T11:35:16.306Z,29.824
2022-11-27T11:40:16.708Z,29.824
2022-11-27T11:45:16.413Z,29.823
2022-11-27T11:50:16.426Z,29.824
2022-11-27T11:55:16.344Z,29.819
2022-11-27T12:00:16.427Z,29.815
2022-11-27T12:05:16.349Z,29.818
2022-11-27T12:10:16.784Z,29.822
2022-11-27T12:15:16.439Z,29.825
2022-11-27T12:20:16.493Z,29.827
2022-11-27T12:25:16.396Z,29.824
2022-11-27T12:30:16.544Z,29.828
2022-11-27T12:35:16.530Z,29.826
2022-11-27T12:40:16.561Z,29.826
2022-11-27T12:45:16.464Z,29.829
2022-11-27T12:50:16.520Z,29.829
2022-11-27T12:55:16.847Z,29.826
2022-11-27T13:00:16.480Z,29.822
2022-11-27T13:05:16.555Z,29.821
2022-11-27T13:10:16.644Z,29.819
2022-11-27T13:15:16.569Z,29.821
2022-11-27T13:20:16.601Z,29.817
2022-11-27T13:25:16.563Z,29.815
2022-11-27T13:30:16.694Z,29.811
2022-11-27T13:35:16.595Z,29.812
2022-11-27T13:40:16.536Z,29.813
2022-11-27T13:45:16.577Z,29.816
2022-11-27T13:50:17.045Z,29.814
2022-11-27T13:55:16.659Z,29.814
2022-11-27T14:00:16.665Z,29.810
2022-11-27T14:05:16.795Z,29.806
2022-11-27T14:10:16.790Z,29.804
2022-11-27T14:15:16.731Z,29.801
2022-11-27T14:20:16.799Z,29.796
2022-11-27T14:25:16.758Z,29.795
2022-11-27T14:30:16.709Z,29.792
2022-11-27T14:35:16.645Z,29.792
2022-11-27T14:40:17.099Z,29.796
2022-11-27T14:45:16.762Z,29.798
2022-11-27T14:50:16.737Z,29.796
2022-11-27T14:55:16.829Z,29.794
2022-11-27T15:00:16.758Z,29.790
2022-11-27T15:05:16.831Z,29.787
2022-11-27T15:10:16.910Z,29.786
2022-11-27T15:15:16.804Z,29.784
2022-11-27T15:20:16.970Z,29.782
2022-11-27T15:25:16.907Z,29.779
2022-11-27T15:30:16.947Z,29.771
2022-11-27T15:35:16.842Z,29.769
2022-11-27T15:40:17.053Z,29.768
2022-11-27T15:45:16.853Z,29.768
2022-11-27T15:50:16.886Z,29.765
2022-11-27T15:55:16.751Z,29.762
2022-11-27T16:00:16.837Z,29.761
2022-11-27T16:05:16.907Z,29.765
2022-11-27T16:10:16.903Z,29.763
2022-11-27T16:15:17.073Z,29.762
2022-11-27T16:20:17.008Z,29.763
2022-11-27T16:25:17.067Z,29.753
2022-11-27T16:30:17.116Z,29.755
2022-11-27T16:35:16.974Z,29.755
2022-11-27T16:40:17.027Z,29.761
2022-11-27T16:45:17.012Z,29.756
2022-11-27T16:50:17.002Z,29.747
2022-11-27T16:55:16.942Z,29.744
2022-11-27T17:00:17.032Z,29.744
2022-11-27T17:05:16.992Z,29.743
2022-11-27T17:10:17.156Z,29.738
2022-11-27T17:15:17.168Z,29.735
2022-11-27T17:20:17.075Z,29.737
2022-11-27T17:25:17.090Z,29.730
2022-11-27T17:30:17.050Z,29.729
2022-11-27T17:35:17.217Z,29.727
2022-11-27T17:40:17.302Z,29.725
2022-11-27T17:45:17.389Z,29.719
2022-11-27T17:50:18.041Z,29.716
2022-11-27T17:55:17.042Z,29.714
2022-11-27T18:00:17.287Z,29.713
2022-11-27T18:05:17.143Z,29.708
2022-11-27T18:10:17.285Z,29.707
2022-11-27T18:15:17.190Z,29.707
2022-11-27T18:20:17.368Z,29.701
2022-11-27T18:25:17.210Z,29.705
2022-11-27T18:30:17.277Z,29.710
2022-11-27T18:35:17.194Z,29.713
2022-11-27T18:40:17.280Z,29.699
2022-11-27T18:45:32.348Z,29.692
2022-11-27T18:50:17.312Z,29.697
2022-11-27T18:55:17.413Z,29.698
2022-11-27T19:00:17.317Z,29.696
2022-11-27T19:05:17.356Z,29.699
2022-11-27T19:10:17.496Z,29.693
2022-11-27T19:15:17.530Z,29.690
2022-11-27T19:20:17.415Z,29.681
2022-11-27T19:25:17.305Z,29.686
2022-11-27T19:30:17.467Z,29.687
2022-11-27T19:35:17.331Z,29.684
2022-11-27T19:40:17.521Z,29.683
2022-11-27T19:45:17.518Z,29.668
2022-11-27T19:50:15.362Z,29.672
2022-11-27T19:55:15.344Z,29.677
2022-11-27T20:00:15.433Z,29.680
2022-11-27T20:05:15.493Z,29.677
2022-11-27T20:10:15.538Z,29.673
2022-11-27T20:15:15.451Z,29.678
2022-11-27T20:20:15.666Z,29.673
2022-11-27T20:25:20.139Z,29.663
2022-11-27T20:30:15.464Z,29.665
2022-11-27T20:35:15.576Z,29.660
2022-11-27T20:40:15.469Z,29.658
2022-11-27T20:45:20.209Z,29.652
2022-11-27T20:50:15.528Z,29.652
2022-11-27T20:55:15.549Z,29.653
2022-11-27T21:00:15.613Z,29.654
2022-11-27T21:05:15.563Z,29.642
2022-11-27T21:10:15.572Z,29.649
2022-11-27T21:15:15.533Z,29.652
2022-11-27T21:20:15.614Z,29.657
2022-11-27T21:25:15.557Z,29.658
2022-11-27T21:30:15.627Z,29.656
2022-11-27T21:35:15.736Z,29.653
2022-11-27T21:40:15.682Z,29.650
2022-11-27T21:45:15.785Z,29.652
2022-11-27T21:50:15.713Z,29.653
2022-11-27T21:55:15.598Z,29.650
2022-11-27T22:00:15.685Z,29.653
2022-11-27T22:05:15.769Z,29.647
2022-11-27T22:10:15.803Z,29.652
2022-11-27T22:15:15.735Z,29.645
2022-11-27T22:20:15.879Z,29.648
2022-11-27T22:25:15.841Z,29.643
2022-11-27T22:30:16.050Z,29.641
2022-11-27T22:35:15.733Z,29.637
2022-11-27T22:40:15.812Z,29.635
2022-11-27T22:45:15.740Z,29.629
2022-11-27T22:50:15.827Z,29.627
2022-11-27T22:55:15.945Z,29.614
2022-11-27T23:00:15.836Z,29.603
2022-11-27T23:05:15.808Z,29.592
2022-11-27T23:10:15.790Z,29.577
2022-11-27T23:15:15.799Z,29.566
2022-11-27T23:20:15.889Z,29.550
2022-11-27T23:25:15.817Z,29.525
2022-11-27T23:30:15.999Z,29.563
2022-11-27T23:35:15.860Z,29.555
2022-11-27T23:40:15.836Z,29.549
2022-11-27T23:45:16.124Z,29.511
2022-11-27T23:50:15.924Z,29.516
2022-11-27T23:55:15.789Z,29.515
